Time;durP1;ratioP1;P1;durP2;ratioP2;P2;SDS_P1;SDS_P2;PMS_P1;PMS_P2;Temp;Humidity;BMP_temperature;BMP_pressure;BME280_temperature;BME280_humidity;BME280_pressure;Samples;Min_cycle;Max_cycle;Signal;HPM_P1;HPM_P2
2023/04/15 00:00:57;;;;;;;5.82;1.95;;;;;;;;;;5017792;28;92123;-78
2023/04/15 00:03:23;;;;;;;6.88;2.20;;;;;;;;;;5017453;28;94823;-79
2023/04/15 00:05:51;;;;;;;7.55;2.20;;;;;;;;;;5018746;28;92079;-80
2023/04/15 00:08:18;;;;;;;5.10;2.10;;;;;;;;;;5028450;28;92767;-80
2023/04/15 00:10:45;;;;;;;6.43;2.10;;;;;;;;;;5003614;28;94269;-79
2023/04/15 00:13:12;;;;;;;6.43;2.20;;;;;;;;;;5017640;28;92413;-79
2023/04/15 00:15:38;;;;;;;6.57;2.10;;;;;;;;;;5018561;28;92888;-79
2023/04/15 00:18:06;;;;;;;5.60;2.47;;;;;;;;;;5017418;28;94462;-80
2023/04/15 00:20:33;;;;;;;6.28;2.28;;;;;;;;;;5021376;28;92772;-78
2023/04/15 00:23:01;;;;;;;6.88;2.20;;;;;;;;;;5014302;28;95261;-78
2023/04/15 00:25:28;;;;;;;7.65;2.20;;;;;;;;;;5013317;28;92658;-79
2023/04/15 00:27:54;;;;;;;5.88;2.15;;;;;;;;;;5017522;28;92617;-78
2023/04/15 00:30:22;;;;;;;5.43;2.08;;;;;;;;;;5017670;28;92499;-77
2023/04/15 00:32:49;;;;;;;4.63;1.98;;;;;;;;;;5008204;28;93068;-78
2023/04/15 00:35:20;;;;;;;4.78;1.88;;;;;;;;;;5019312;28;91286;-78
2023/04/15 00:37:48;;;;;;;5.03;2.10;;;;;;;;;;5018198;28;92205;-77
2023/04/15 00:40:16;;;;;;;7.00;2.47;;;;;;;;;;5017413;28;92766;-78
2023/04/15 00:42:43;;;;;;;7.05;2.10;;;;;;;;;;4999009;28;94772;-77
2023/04/15 00:45:10;;;;;;;5.65;2.10;;;;;;;;;;5013801;28;95015;-77
2023/04/15 00:47:38;;;;;;;7.20;2.10;;;;;;;;;;5018551;28;92423;-79
2023/04/15 00:50:04;;;;;;;7.88;2.10;;;;;;;;;;5000229;28;95469;-79
2023/04/15 00:52:31;;;;;;;4.53;2.00;;;;;;;;;;5016576;28;93229;-79
2023/04/15 00:54:58;;;;;;;6.40;1.80;;;;;;;;;;5017141;28;92509;-78
2023/04/15 00:57:26;;;;;;;5.88;1.95;;;;;;;;;;5000502;28;94373;-78
2023/04/15 00:59:54;;;;;;;5.07;1.92;;;;;;;;;;5018467;28;91744;-78
2023/04/15 01:02:21;;;;;;;5.05;1.95;;;;;;;;;;5017589;28;92270;-78
2023/04/15 01:04:48;;;;;;;14.27;2.25;;;;;;;;;;5019543;28;93839;-79
2023/04/15 01:07:15;;;;;;;5.13;1.75;;;;;;;;;;5015712;28;95413;-79
2023/04/15 01:09:41;;;;;;;4.68;1.90;;;;;;;;;;4992875;28;97863;-78
2023/04/15 01:12:11;;;;;;;5.68;2.03;;;;;;;;;;5008468;28;92711;-78
2023/04/15 01:14:38;;;;;;;4.10;1.90;;;;;;;;;;4999627;28;92396;-78
2023/04/15 01:17:04;;;;;;;3.72;1.80;;;;;;;;;;4994378;28;95587;-79
2023/04/15 01:19:31;;;;;;;6.50;2.15;;;;;;;;;;4988737;28;95633;-78
2023/04/15 01:21:58;;;;;;;4.82;2.10;;;;;;;;;;5014341;28;93650;-78
2023/04/15 01:24:25;;;;;;;5.68;2.10;;;;;;;;;;5021400;28;92292;-78
2023/04/15 01:26:53;;;;;;;4.80;1.85;;;;;;;;;;5015729;28;92762;-79
2023/04/15 01:29:19;;;;;;;4.95;2.00;;;;;;;;;;5017048;28;92635;-79
2023/04/15 01:31:53;;;;;;;6.00;2.00;;;;;;;;;;5013795;28;97710;-80
2023/04/15 01:34:21;;;;;;;4.50;2.00;;;;;;;;;;5033002;28;92039;-78
2023/04/15 01:36:47;;;;;;;4.60;1.88;;;;;;;;;;4997550;28;94481;-81
2023/04/15 01:39:14;;;;;;;11.60;2.22;;;;;;;;;;5016691;28;92898;-80
2023/04/15 01:41:41;;;;;;;6.30;2.10;;;;;;;;;;5021225;28;92116;-80
2023/04/15 01:44:07;;;;;;;11.60;2.30;;;;;;;;;;5019724;28;92540;-80
2023/04/15 01:46:34;;;;;;;6.68;2.22;;;;;;;;;;5023742;28;92838;-79
2023/04/15 01:49:01;;;;;;;6.32;1.88;;;;;;;;;;5022343;28;92273;-79
2023/04/15 01:51:28;;;;;;;5.13;2.08;;;;;;;;;;5018433;28;94349;-79
2023/04/15 01:53:55;;;;;;;5.03;1.90;;;;;;;;;;5009410;28;92276;-79
2023/04/15 01:56:25;;;;;;;7.22;1.90;;;;;;;;;;5018816;28;94798;-79
2023/04/15 01:58:52;;;;;;;6.15;1.85;;;;;;;;;;5019642;28;95062;-80
2023/04/15 02:01:18;;;;;;;6.90;2.08;;;;;;;;;;5018689;28;94169;-78
2023/04/15 02:03:45;;;;;;;5.03;1.80;;;;;;;;;;5016448;28;92961;-79
2023/04/15 02:06:13;;;;;;;5.13;2.03;;;;;;;;;;5015917;28;92512;-80
2023/04/15 02:08:40;;;;;;;7.65;2.03;;;;;;;;;;5009295;28;93550;-80
2023/04/15 02:11:07;;;;;;;7.80;2.20;;;;;;;;;;5010706;28;94716;-81
2023/04/15 02:13:33;;;;;;;7.05;2.00;;;;;;;;;;5000021;28;94035;-79
2023/04/15 02:16:00;;;;;;;5.13;1.80;;;;;;;;;;5020589;28;92135;-79
2023/04/15 02:18:27;;;;;;;5.95;1.90;;;;;;;;;;5020000;28;92831;-80
2023/04/15 02:20:55;;;;;;;4.15;1.80;;;;;;;;;;5016977;28;94535;-80
2023/04/15 02:23:21;;;;;;;10.05;2.17;;;;;;;;;;5019102;28;97278;-79
2023/04/15 02:25:48;;;;;;;4.75;1.83;;;;;;;;;;5017376;28;92646;-80
2023/04/15 02:28:19;;;;;;;5.57;2.03;;;;;;;;;;5008395;28;92514;-81
2023/04/15 02:30:47;;;;;;;4.72;1.88;;;;;;;;;;5015363;28;92382;-81
2023/04/15 02:33:13;;;;;;;4.05;1.80;;;;;;;;;;5018743;28;92515;-80
2023/04/15 02:35:43;;;;;;;5.03;1.80;;;;;;;;;;5026944;28;93395;-80
2023/04/15 02:38:10;;;;;;;3.38;1.60;;;;;;;;;;5031587;28;94160;-79
2023/04/15 02:40:36;;;;;;;;;;;;;;;;;;5031307;28;92013;-80
2023/04/15 02:43:04;;;;;;;4.72;1.90;;;;;;;;;;5028637;28;111989;-80
2023/04/15 02:45:30;;;;;;;5.25;1.73;;;;;;;;;;5009352;28;95446;-79
2023/04/15 02:48:02;;;;;;;4.07;1.85;;;;;;;;;;5027686;28;92397;-80
2023/04/15 02:50:30;;;;;;;4.70;1.95;;;;;;;;;;5005442;28;96652;-79
2023/04/15 02:52:56;;;;;;;5.18;1.90;;;;;;;;;;5001417;28;95641;-79
2023/04/15 02:55:23;;;;;;;5.50;1.80;;;;;;;;;;5020424;28;94337;-80
2023/04/15 02:57:49;;;;;;;5.50;1.88;;;;;;;;;;5002580;28;95505;-80
2023/04/15 03:00:16;;;;;;;6.47;1.90;;;;;;;;;;5017116;28;92400;-81
2023/04/15 03:02:45;;;;;;;5.00;2.15;;;;;;;;;;5019563;28;93707;-81
2023/04/15 03:05:13;;;;;;;6.82;2.22;;;;;;;;;;5018390;28;92651;-80
2023/04/15 03:07:45;;;;;;;;;;;;;;;;;;5003707;28;92031;-81
2023/04/15 03:10:12;;;;;;;5.32;2.17;;;;;;;;;;5017536;28;95095;-80
2023/04/15 03:12:39;;;;;;;4.72;1.90;;;;;;;;;;5011193;28;95197;-80
2023/04/15 03:15:09;;;;;;;3.22;1.77;;;;;;;;;;5016585;28;92528;-80
2023/04/15 03:17:40;;;;;;;5.93;2.03;;;;;;;;;;5018615;28;95615;-80
2023/04/15 03:20:07;;;;;;;5.00;1.77;;;;;;;;;;5033450;28;92326;-80
2023/04/15 03:22:34;;;;;;;8.82;2.10;;;;;;;;;;5018514;28;95354;-80
2023/04/15 03:25:01;;;;;;;4.30;2.00;;;;;;;;;;5018101;28;95007;-80
2023/04/15 03:27:28;;;;;;;4.97;1.70;;;;;;;;;;5018223;28;91481;-80
2023/04/15 03:29:58;;;;;;;4.40;1.80;;;;;;;;;;4999144;28;93962;-79
2023/04/15 03:32:27;;;;;;;4.85;1.83;;;;;;;;;;5010771;28;93646;-80
2023/04/15 03:34:53;;;;;;;4.88;1.80;;;;;;;;;;5007368;28;97722;-80
2023/04/15 03:37:20;;;;;;;4.75;1.90;;;;;;;;;;5007638;28;93449;-80
2023/04/15 03:39:47;;;;;;;4.72;1.70;;;;;;;;;;5018002;28;92003;-80
2023/04/15 03:42:13;;;;;;;3.13;1.50;;;;;;;;;;5016149;28;94994;-80
2023/04/15 03:44:40;;;;;;;4.32;1.90;;;;;;;;;;5014384;28;93511;-80
2023/04/15 03:47:06;;;;;;;5.15;2.00;;;;;;;;;;5008023;28;92249;-80
2023/04/15 03:49:33;;;;;;;3.90;1.75;;;;;;;;;;5018134;28;94654;-79
2023/04/15 03:51:59;;;;;;;11.93;2.15;;;;;;;;;;5019791;28;91874;-80
2023/04/15 03:54:26;;;;;;;12.25;2.15;;;;;;;;;;5017854;28;92360;-80
2023/04/15 03:56:52;;;;;;;8.77;1.73;;;;;;;;;;5023448;28;92718;-81
2023/04/15 03:59:18;;;;;;;5.43;1.77;;;;;;;;;;5020437;28;94843;-80
2023/04/15 04:01:45;;;;;;;8.23;2.00;;;;;;;;;;5018249;28;97850;-80
2023/04/15 04:04:12;;;;;;;7.20;1.90;;;;;;;;;;5018182;28;95339;-81
2023/04/15 04:06:38;;;;;;;6.00;2.10;;;;;;;;;;5019837;28;92477;-80
2023/04/15 04:09:05;;;;;;;5.63;1.95;;;;;;;;;;5014085;28;92392;-80
2023/04/15 04:11:32;;;;;;;3.50;1.60;;;;;;;;;;5008150;28;93653;-79
2023/04/15 04:13:58;;;;;;;2.95;1.38;;;;;;;;;;5018939;28;92279;-80
2023/04/15 04:16:25;;;;;;;2.78;1.50;;;;;;;;;;5008975;28;91755;-79
2023/04/15 04:18:52;;;;;;;4.80;1.90;;;;;;;;;;5031412;28;92226;-79
2023/04/15 04:21:18;;;;;;;3.40;1.70;;;;;;;;;;5026331;28;95063;-80
2023/04/15 04:23:45;;;;;;;3.45;1.55;;;;;;;;;;5002328;28;95314;-78
2023/04/15 04:26:11;;;;;;;4.13;1.67;;;;;;;;;;5023436;28;92274;-79
2023/04/15 04:28:39;;;;;;;3.22;1.63;;;;;;;;;;5030536;28;94454;-79
2023/04/15 04:31:06;;;;;;;5.60;1.60;;;;;;;;;;5029696;28;93145;-80
2023/04/15 04:33:32;;;;;;;2.83;1.52;;;;;;;;;;5030075;28;92055;-79
2023/04/15 04:35:59;;;;;;;4.72;1.60;;;;;;;;;;5023037;28;92407;-79
2023/04/15 04:38:25;;;;;;;4.78;1.85;;;;;;;;;;5019737;28;92723;-77
2023/04/15 04:40:52;;;;;;;3.60;1.60;;;;;;;;;;5019327;28;91645;-77
2023/04/15 04:43:19;;;;;;;3.85;1.60;;;;;;;;;;5019188;28;93110;-78
2023/04/15 04:45:46;;;;;;;3.00;1.52;;;;;;;;;;5019997;28;92477;-79
2023/04/15 04:48:12;;;;;;;8.60;2.22;;;;;;;;;;5018514;28;94807;-79
2023/04/15 04:50:39;;;;;;;8.80;1.95;;;;;;;;;;5019100;28;95893;-79
2023/04/15 04:53:05;;;;;;;11.20;1.95;;;;;;;;;;5014950;28;92488;-79
2023/04/15 04:55:32;;;;;;;6.82;1.67;;;;;;;;;;5017051;28;95020;-79
2023/04/15 04:57:58;;;;;;;7.72;2.15;;;;;;;;;;5016787;28;94644;-79
2023/04/15 05:00:24;;;;;;;4.55;1.70;;;;;;;;;;5016442;28;92384;-79
2023/04/15 05:02:51;;;;;;;4.05;1.55;;;;;;;;;;5020961;28;92439;-80
2023/04/15 05:05:18;;;;;;;4.70;1.50;;;;;;;;;;5020381;28;91449;-79
2023/04/15 05:07:44;;;;;;;3.63;1.40;;;;;;;;;;5003758;28;94682;-78
2023/04/15 05:10:11;;;;;;;7.45;1.70;;;;;;;;;;5013868;28;95867;-78
2023/04/15 05:12:37;;;;;;;6.13;1.67;;;;;;;;;;5008709;28;94798;-78
2023/04/15 05:15:04;;;;;;;4.35;1.50;;;;;;;;;;5017904;28;94882;-79
2023/04/15 05:17:32;;;;;;;4.07;1.70;;;;;;;;;;5003317;28;94942;-78
2023/04/15 05:19:58;;;;;;;5.00;1.80;;;;;;;;;;5019768;28;92160;-78
2023/04/15 05:22:25;;;;;;;3.58;1.55;;;;;;;;;;5018923;28;92461;-79
2023/04/15 05:24:51;;;;;;;4.65;1.60;;;;;;;;;;5023137;28;93507;-79
2023/04/15 05:27:18;;;;;;;3.95;1.70;;;;;;;;;;5019053;28;92472;-81
2023/04/15 05:29:45;;;;;;;5.65;1.90;;;;;;;;;;5003470;28;94634;-81
2023/04/15 05:32:11;;;;;;;4.70;1.80;;;;;;;;;;5019797;28;92501;-79
2023/04/15 05:34:38;;;;;;;4.05;1.67;;;;;;;;;;5019620;28;94587;-81
2023/04/15 05:37:04;;;;;;;4.85;1.60;;;;;;;;;;5018261;28;96374;-80
2023/04/15 05:39:31;;;;;;;3.53;1.65;;;;;;;;;;5007538;28;92708;-79
2023/04/15 05:41:58;;;;;;;4.20;1.50;;;;;;;;;;5019161;28;95335;-81
2023/04/15 05:44:25;;;;;;;3.50;1.60;;;;;;;;;;5023923;28;93194;-81
2023/04/15 05:46:52;;;;;;;4.05;1.70;;;;;;;;;;5008720;28;92502;-81
2023/04/15 05:49:18;;;;;;;3.65;1.60;;;;;;;;;;5019242;28;94788;-79
2023/04/15 05:51:46;;;;;;;3.83;1.70;;;;;;;;;;5005914;28;92388;-79
2023/04/15 05:54:12;;;;;;;3.90;1.60;;;;;;;;;;5012400;28;92197;-80
2023/04/15 05:56:39;;;;;;;3.90;1.65;;;;;;;;;;5020995;28;92441;-79
2023/04/15 05:59:06;;;;;;;5.57;1.80;;;;;;;;;;5021125;28;92528;-79
2023/04/15 06:01:33;;;;;;;4.18;1.70;;;;;;;;;;5018674;28;95049;-78
2023/04/15 06:03:59;;;;;;;5.72;1.92;;;;;;;;;;5009503;28;92362;-80
2023/04/15 06:06:26;;;;;;;5.38;1.80;;;;;;;;;;5016703;28;92316;-80
2023/04/15 06:08:54;;;;;;;7.75;1.88;;;;;;;;;;5019637;28;95310;-80
2023/04/15 06:11:21;;;;;;;4.75;1.65;;;;;;;;;;5016240;28;92377;-79
2023/04/15 06:13:47;;;;;;;4.18;1.80;;;;;;;;;;5021491;28;92300;-80
2023/04/15 06:16:14;;;;;;;4.78;1.75;;;;;;;;;;5017596;28;97226;-81
2023/04/15 06:18:40;;;;;;;2.85;1.60;;;;;;;;;;5028211;28;91806;-80
2023/04/15 06:21:07;;;;;;;4.10;1.80;;;;;;;;;;5029902;28;94501;-79
2023/04/15 06:23:34;;;;;;;4.32;1.83;;;;;;;;;;5031766;28;92367;-82
2023/04/15 06:26:01;;;;;;;4.97;1.70;;;;;;;;;;5042934;28;94932;-80
2023/04/15 06:28:27;;;;;;;4.03;1.70;;;;;;;;;;5035143;28;94853;-80
2023/04/15 06:30:54;;;;;;;3.60;1.77;;;;;;;;;;5032686;28;92579;-80
2023/04/15 06:33:20;;;;;;;3.72;1.55;;;;;;;;;;5025052;28;92443;-82
2023/04/15 06:35:48;;;;;;;3.13;1.50;;;;;;;;;;5021946;28;92738;-80
2023/04/15 06:38:15;;;;;;;4.72;1.60;;;;;;;;;;5022653;28;92504;-79
2023/04/15 06:40:41;;;;;;;5.57;1.70;;;;;;;;;;5012748;28;93932;-79
2023/04/15 06:43:08;;;;;;;3.75;1.60;;;;;;;;;;5015192;28;94161;-80
2023/04/15 06:45:35;;;;;;;2.80;1.60;;;;;;;;;;5008233;28;92653;-80
2023/04/15 06:48:01;;;;;;;4.55;1.80;;;;;;;;;;5004987;28;92712;-80
2023/04/15 06:50:28;;;;;;;5.55;1.60;;;;;;;;;;5024809;28;97840;-80
2023/04/15 06:52:54;;;;;;;4.53;1.67;;;;;;;;;;5012921;28;95149;-81
2023/04/15 06:55:21;;;;;;;4.15;1.65;;;;;;;;;;5018349;28;93078;-80
2023/04/15 06:57:47;;;;;;;4.45;1.77;;;;;;;;;;5015256;28;92332;-81
2023/04/15 07:00:14;;;;;;;3.63;1.55;;;;;;;;;;5018255;28;92247;-82
2023/04/15 07:02:41;;;;;;;3.40;1.52;;;;;;;;;;5018149;28;95226;-80
2023/04/15 07:05:07;;;;;;;3.63;1.50;;;;;;;;;;5018413;28;92692;-80
2023/04/15 07:07:35;;;;;;;3.40;1.55;;;;;;;;;;5017293;28;91803;-80
2023/04/15 07:10:02;;;;;;;4.13;1.77;;;;;;;;;;5018138;28;95315;-80
2023/04/15 07:12:29;;;;;;;;;;;;;;;;;;5015982;28;92189;-80
2023/04/15 07:14:56;;;;;;;4.25;1.60;;;;;;;;;;5019262;28;95525;-81
2023/04/15 07:17:22;;;;;;;8.20;2.40;;;;;;;;;;5019059;28;92329;-76
2023/04/15 07:19:49;;;;;;;10.52;2.13;;;;;;;;;;5018853;28;94494;-77
2023/04/15 07:22:15;;;;;;;7.00;2.30;;;;;;;;;;5018191;28;93473;-77
2023/04/15 07:24:41;;;;;;;9.35;2.45;;;;;;;;;;5019009;28;92496;-76
2023/04/15 07:27:08;;;;;;;4.72;1.80;;;;;;;;;;5015848;28;93045;-77
2023/04/15 07:29:35;;;;;;;5.90;1.70;;;;;;;;;;5015951;28;92297;-77
2023/04/15 07:32:01;;;;;;;5.85;1.90;;;;;;;;;;5005026;28;91708;-78
2023/04/15 07:34:27;;;;;;;2.83;1.63;;;;;;;;;;5036933;28;92309;-77
2023/04/15 07:36:56;;;;;;;4.18;1.90;;;;;;;;;;5018114;28;92145;-77
2023/04/15 07:39:23;;;;;;;5.25;2.00;;;;;;;;;;5017752;28;94572;-77
2023/04/15 07:41:49;;;;;;;7.65;2.00;;;;;;;;;;5010148;28;92743;-78
2023/04/15 07:44:16;;;;;;;6.57;1.90;;;;;;;;;;5018087;28;92802;-78
2023/04/15 07:46:42;;;;;;;7.38;2.30;;;;;;;;;;5019331;28;92253;-78
2023/04/15 07:49:09;;;;;;;4.45;1.60;;;;;;;;;;5019890;28;92610;-79
2023/04/15 07:51:36;;;;;;;4.05;1.50;;;;;;;;;;5016865;28;92508;-76
2023/04/15 07:54:03;;;;;;;3.45;1.60;;;;;;;;;;5024953;28;93471;-77
2023/04/15 07:56:29;;;;;;;3.38;1.65;;;;;;;;;;5018819;28;91629;-77
2023/04/15 07:58:56;;;;;;;4.90;1.55;;;;;;;;;;5019493;28;92325;-77
2023/04/15 08:01:22;;;;;;;3.00;1.30;;;;;;;;;;5017967;28;93039;-76
2023/04/15 08:03:49;;;;;;;5.18;1.60;;;;;;;;;;5017106;28;94536;-77
2023/04/15 08:06:16;;;;;;;4.03;1.58;;;;;;;;;;5018106;28;94145;-77
2023/04/15 08:08:43;;;;;;;9.13;1.80;;;;;;;;;;5018730;28;93070;-77
2023/04/15 08:11:09;;;;;;;7.78;1.35;;;;;;;;;;5015615;28;92376;-78
2023/04/15 08:13:36;;;;;;;4.00;1.40;;;;;;;;;;5004724;28;92270;-77
2023/04/15 08:16:21;;;;;;;4.50;1.58;;;;;;;;;;5021481;28;93451;-78
2023/04/15 08:18:47;;;;;;;;;;;;;;;;;;5019185;28;97526;-78
2023/04/15 08:21:14;;;;;;;3.95;1.25;;;;;;;;;;5019155;28;110904;-76
2023/04/15 08:23:41;;;;;;;2.38;1.20;;;;;;;;;;5017853;28;92499;-78
2023/04/15 08:26:08;;;;;;;3.33;1.20;;;;;;;;;;5011542;28;92879;-77
2023/04/15 08:28:36;;;;;;;3.10;1.40;;;;;;;;;;5015448;28;97222;-76
2023/04/15 08:31:02;;;;;;;4.30;1.48;;;;;;;;;;5008943;28;92087;-77
2023/04/15 08:33:29;;;;;;;3.15;1.15;;;;;;;;;;5018307;28;93300;-76
2023/04/15 08:35:56;;;;;;;9.30;1.70;;;;;;;;;;5018181;28;92674;-75
2023/04/15 08:38:23;;;;;;;14.52;1.80;;;;;;;;;;5016511;28;93418;-77
2023/04/15 08:40:49;;;;;;;4.28;1.40;;;;;;;;;;5016394;28;95174;-76
2023/04/15 08:43:36;;;;;;;4.15;1.50;;;;;;;;;;5016666;28;92325;-77
2023/04/15 08:46:03;;;;;;;4.15;1.33;;;;;;;;;;5016287;28;95817;-75
2023/04/15 08:48:31;;;;;;;3.53;1.35;;;;;;;;;;5017161;28;97024;-75
2023/04/15 08:50:58;;;;;;;3.25;1.42;;;;;;;;;;5017612;28;92586;-77
2023/04/15 08:53:25;;;;;;;29.38;3.22;;;;;;;;;;5016475;28;95695;-77
2023/04/15 08:55:53;;;;;;;16.02;1.95;;;;;;;;;;5017126;28;93160;-76
2023/04/15 08:58:20;;;;;;;9.10;1.50;;;;;;;;;;5017404;28;92703;-77
2023/04/15 09:00:47;;;;;;;5.63;1.77;;;;;;;;;;5019034;28;94014;-77
2023/04/15 09:03:14;;;;;;;;;;;;;;;;;;5018949;28;92958;-77
2023/04/15 09:05:41;;;;;;;6.63;1.58;;;;;;;;;;5017908;28;93179;-77
2023/04/15 09:08:07;;;;;;;3.72;1.45;;;;;;;;;;5012239;28;92550;-76
2023/04/15 09:10:35;;;;;;;5.55;1.50;;;;;;;;;;5014163;28;93134;-77
2023/04/15 09:13:03;;;;;;;3.42;1.23;;;;;;;;;;5011010;28;92451;-76
2023/04/15 09:15:31;;;;;;;3.95;1.70;;;;;;;;;;5010704;28;93123;-77
2023/04/15 09:17:58;;;;;;;5.05;1.60;;;;;;;;;;5016208;28;94591;-77
2023/04/15 09:20:25;;;;;;;4.43;1.65;;;;;;;;;;5017238;28;94557;-77
2023/04/15 09:22:51;;;;;;;6.57;1.48;;;;;;;;;;5018932;28;92583;-75
2023/04/15 09:25:21;;;;;;;3.38;1.58;;;;;;;;;;5015550;28;92425;-75
2023/04/15 09:27:48;;;;;;;3.63;1.63;;;;;;;;;;5017087;28;93280;-76
2023/04/15 09:30:15;;;;;;;5.13;1.60;;;;;;;;;;5013830;28;93803;-76
2023/04/15 09:32:42;;;;;;;;;;;;;;;;;;5006080;28;95662;-76
2023/04/15 09:35:12;;;;;;;4.53;1.90;;;;;;;;;;5012749;28;106578;-76
2023/04/15 09:37:38;;;;;;;3.90;1.80;;;;;;;;;;5012438;28;92421;-76
2023/04/15 09:40:05;;;;;;;4.32;2.00;;;;;;;;;;5015524;28;93170;-78
2023/04/15 09:42:31;;;;;;;;;;;;;;;;;;5015328;28;95492;-76
2023/04/15 09:45:11;;;;;;;5.47;2.00;;;;;;;;;;5019077;28;92466;-76
2023/04/15 09:47:37;;;;;;;6.88;2.10;;;;;;;;;;5016529;28;93334;-76
2023/04/15 09:50:04;;;;;;;4.38;1.80;;;;;;;;;;5017318;28;92343;-77
2023/04/15 09:52:30;;;;;;;4.63;1.92;;;;;;;;;;5017506;28;97317;-75
2023/04/15 09:54:58;;;;;;;4.18;1.90;;;;;;;;;;5021685;28;92894;-76
2023/04/15 09:57:24;;;;;;;4.25;1.85;;;;;;;;;;5030077;28;92393;-76
2023/04/15 09:59:51;;;;;;;5.40;2.00;;;;;;;;;;5029123;28;92410;-76
2023/04/15 10:02:19;;;;;;;4.07;1.73;;;;;;;;;;5026567;28;93135;-77
2023/04/15 10:04:47;;;;;;;4.68;1.90;;;;;;;;;;5035895;28;91645;-75
2023/04/15 10:07:14;;;;;;;4.47;1.90;;;;;;;;;;5029310;28;94520;-75
2023/04/15 10:09:41;;;;;;;3.42;1.80;;;;;;;;;;5028363;28;92353;-76
2023/04/15 10:12:07;;;;;;;5.18;2.08;;;;;;;;;;5026326;28;92615;-76
2023/04/15 10:14:35;;;;;;;4.32;1.80;;;;;;;;;;5022984;28;92772;-76
2023/04/15 10:17:03;;;;;;;3.60;1.65;;;;;;;;;;5018181;28;92631;-76
2023/04/15 10:19:35;;;;;;;3.80;1.65;;;;;;;;;;5017338;28;92585;-75
2023/04/15 10:22:02;;;;;;;4.45;1.98;;;;;;;;;;5019765;28;92755;-76
2023/04/15 10:24:30;;;;;;;4.15;1.90;;;;;;;;;;5019747;28;91452;-76
2023/04/15 10:26:58;;;;;;;4.43;2.08;;;;;;;;;;5018949;28;92938;-77
2023/04/15 10:29:26;;;;;;;5.20;1.90;;;;;;;;;;5018119;28;92607;-76
2023/04/15 10:31:55;;;;;;;3.72;1.83;;;;;;;;;;5014685;28;95006;-77
2023/04/15 10:34:23;;;;;;;3.47;1.60;;;;;;;;;;5019304;28;93368;-76
2023/04/15 10:36:50;;;;;;;3.80;1.52;;;;;;;;;;5018204;28;92362;-77
2023/04/15 10:39:32;;;;;;;3.53;1.50;;;;;;;;;;5019648;28;92454;-76
2023/04/15 10:42:12;;;;;;;5.40;1.80;;;;;;;;;;5018385;28;93206;-76
2023/04/15 10:44:41;;;;;;;3.30;1.63;;;;;;;;;;5014738;28;92518;-77
2023/04/15 10:47:14;;;;;;;2.95;1.80;;;;;;;;;;5015316;28;92486;-76
2023/04/15 10:49:49;;;;;;;3.47;1.58;;;;;;;;;;5021915;28;94367;-76
2023/04/15 10:52:22;;;;;;;4.20;1.75;;;;;;;;;;5019042;28;92136;-76
2023/04/15 10:54:48;;;;;;;3.08;1.50;;;;;;;;;;5019485;28;92687;-75
2023/04/15 10:57:20;;;;;;;4.60;1.75;;;;;;;;;;5018582;28;96104;-76
2023/04/15 10:59:58;;;;;;;3.75;1.83;;;;;;;;;;5019677;28;94896;-76
2023/04/15 11:02:38;;;;;;;10.73;1.92;;;;;;;;;;5018854;28;93032;-76
2023/04/15 11:05:04;;;;;;;10.13;2.10;;;;;;;;;;5019870;28;92331;-76
2023/04/15 11:07:40;;;;;;;7.30;1.90;;;;;;;;;;5019595;28;91999;-75
2023/04/15 11:10:13;;;;;;;7.85;2.00;;;;;;;;;;5016938;28;92548;-77
2023/04/15 11:12:40;;;;;;;4.93;1.80;;;;;;;;;;5020419;27;92999;-76
2023/04/15 11:15:26;;;;;;;7.88;1.85;;;;;;;;;;5013882;28;94862;-75
2023/04/15 11:17:52;;;;;;;4.53;1.60;;;;;;;;;;5011243;28;92376;-75
2023/04/15 11:20:19;;;;;;;3.63;1.60;;;;;;;;;;5018810;28;92682;-75
2023/04/15 11:22:46;;;;;;;4.32;1.65;;;;;;;;;;5016404;28;95185;-77
2023/04/15 11:25:13;;;;;;;;;;;;;;;;;;5019186;28;92205;-77
2023/04/15 11:27:39;;;;;;;3.42;1.50;;;;;;;;;;5010435;28;106561;-76
2023/04/15 11:30:17;;;;;;;4.00;1.48;;;;;;;;;;5007215;28;94072;-77
2023/04/15 11:32:43;;;;;;;24.35;2.92;;;;;;;;;;5014601;28;92265;-78
2023/04/15 11:35:10;;;;;;;12.55;1.92;;;;;;;;;;5030619;28;92428;-76
2023/04/15 11:37:36;;;;;;;7.93;1.80;;;;;;;;;;5018960;28;92341;-77
2023/04/15 11:40:03;;;;;;;11.25;1.73;;;;;;;;;;5018795;28;92324;-77
2023/04/15 11:42:29;;;;;;;4.53;1.60;;;;;;;;;;5013232;28;97984;-77
2023/04/15 11:45:14;;;;;;;3.45;1.38;;;;;;;;;;5008126;28;92087;-77
2023/04/15 11:47:41;;;;;;;4.07;1.60;;;;;;;;;;5016400;28;94735;-77
2023/04/15 11:50:08;;;;;;;;;;;;;;;;;;5018585;28;92736;-77
2023/04/15 11:52:34;;;;;;;4.40;1.52;;;;;;;;;;5020138;28;92468;-76
2023/04/15 11:55:02;;;;;;;5.80;1.48;;;;;;;;;;5021166;28;92343;-77
2023/04/15 11:57:31;;;;;;;2.58;1.40;;;;;;;;;;5016196;28;93667;-77
2023/04/15 11:59:59;;;;;;;4.88;1.40;;;;;;;;;;5018256;28;92413;-77
2023/04/15 12:02:29;;;;;;;7.70;1.67;;;;;;;;;;5017353;28;92585;-77
2023/04/15 12:05:04;;;;;;;4.65;1.58;;;;;;;;;;5013867;28;91824;-77
2023/04/15 12:07:30;;;;;;;9.00;1.83;;;;;;;;;;5016654;28;92399;-78
2023/04/15 12:09:57;;;;;;;11.27;1.50;;;;;;;;;;5013867;28;92498;-79
2023/04/15 12:12:27;;;;;;;7.10;1.60;;;;;;;;;;5012149;28;99309;-79
2023/04/15 12:14:55;;;;;;;4.93;1.40;;;;;;;;;;5016761;28;95064;-79
2023/04/15 12:17:23;;;;;;;5.47;1.42;;;;;;;;;;5011818;28;92796;-79
2023/04/15 12:19:54;;;;;;;5.75;1.52;;;;;;;;;;5015238;28;94224;-79
2023/04/15 12:22:21;;;;;;;5.45;1.52;;;;;;;;;;5021623;28;94908;-78
2023/04/15 12:24:53;;;;;;;4.60;1.20;;;;;;;;;;4995555;28;92421;-78
2023/04/15 12:27:20;;;;;;;2.67;1.00;;;;;;;;;;5015177;28;92717;-79
2023/04/15 12:29:46;;;;;;;3.88;1.27;;;;;;;;;;5016902;28;91706;-78
2023/04/15 12:32:14;;;;;;;1.98;1.10;;;;;;;;;;5010699;28;92145;-79
2023/04/15 12:34:42;;;;;;;3.58;1.10;;;;;;;;;;5012739;28;93530;-79
2023/04/15 12:37:10;;;;;;;2.45;0.88;;;;;;;;;;5010442;28;95710;-78
2023/04/15 12:39:40;;;;;;;2.03;0.90;;;;;;;;;;5017915;28;92830;-80
2023/04/15 12:42:07;;;;;;;2.45;0.90;;;;;;;;;;4996320;28;94003;-79
2023/04/15 12:44:35;;;;;;;3.58;1.20;;;;;;;;;;5006944;28;93436;-78
2023/04/15 12:47:02;;;;;;;3.10;0.98;;;;;;;;;;5015100;28;92481;-77
2023/04/15 12:49:29;;;;;;;2.33;0.80;;;;;;;;;;5015642;28;94705;-79
2023/04/15 12:51:56;;;;;;;2.63;0.90;;;;;;;;;;5013668;28;92169;-79
2023/04/15 12:54:23;;;;;;;2.50;0.90;;;;;;;;;;5013914;28;92378;-78
2023/04/15 12:56:49;;;;;;;3.53;0.93;;;;;;;;;;5015915;28;92404;-77
2023/04/15 12:59:19;;;;;;;3.75;1.05;;;;;;;;;;5017450;28;92774;-78
2023/04/15 13:01:46;;;;;;;3.97;0.80;;;;;;;;;;5016796;28;94636;-79
2023/04/15 13:04:13;;;;;;;2.25;0.88;;;;;;;;;;5014183;28;92418;-79
2023/04/15 13:06:40;;;;;;;1.67;1.02;;;;;;;;;;5015513;28;92674;-80
2023/04/15 13:09:06;;;;;;;2.00;0.88;;;;;;;;;;5013049;28;93217;-79
2023/04/15 13:11:33;;;;;;;1.35;0.80;;;;;;;;;;5019902;28;92649;-78
2023/04/15 13:14:00;;;;;;;2.13;1.00;;;;;;;;;;5015976;28;92444;-80
2023/04/15 13:16:27;;;;;;;3.20;0.93;;;;;;;;;;5013112;28;92776;-78
2023/04/15 13:18:54;;;;;;;1.38;0.85;;;;;;;;;;5017294;28;98514;-78
2023/04/15 13:21:20;;;;;;;3.35;1.02;;;;;;;;;;5015347;28;92550;-80
2023/04/15 13:23:47;;;;;;;2.30;0.90;;;;;;;;;;5018185;28;93869;-79
2023/04/15 13:26:14;;;;;;;1.92;0.90;;;;;;;;;;5011233;28;97031;-80
2023/04/15 13:28:40;;;;;;;1.20;0.80;;;;;;;;;;5014034;28;92673;-77
2023/04/15 13:31:07;;;;;;;2.15;1.15;;;;;;;;;;5017094;28;92278;-76
2023/04/15 13:33:33;;;;;;;5.15;1.55;;;;;;;;;;5012495;28;92424;-78
2023/04/15 13:36:00;;;;;;;6.35;1.60;;;;;;;;;;5021053;28;92506;-79
2023/04/15 13:38:26;;;;;;;5.45;1.50;;;;;;;;;;5028071;28;91998;-78
2023/04/15 13:40:53;;;;;;;5.32;1.30;;;;;;;;;;5033243;28;94062;-79
2023/04/15 13:43:21;;;;;;;4.38;1.30;;;;;;;;;;5034300;28;91217;-79
2023/04/15 13:45:47;;;;;;;3.42;1.27;;;;;;;;;;5024719;28;92155;-80
2023/04/15 13:48:14;;;;;;;3.72;1.45;;;;;;;;;;5023629;28;92501;-80
2023/04/15 13:50:44;;;;;;;3.30;1.30;;;;;;;;;;5026966;28;94520;-78
2023/04/15 13:53:11;;;;;;;3.70;1.50;;;;;;;;;;5022866;28;94086;-79
2023/04/15 13:55:40;;;;;;;3.50;1.30;;;;;;;;;;5025015;28;92378;-78
2023/04/15 13:58:07;;;;;;;3.53;1.42;;;;;;;;;;5022279;28;92439;-78
2023/04/15 14:00:33;;;;;;;3.67;1.30;;;;;;;;;;5019895;28;92472;-78
2023/04/15 14:03:00;;;;;;;4.38;1.40;;;;;;;;;;5003519;28;93392;-78
2023/04/15 14:05:26;;;;;;;3.28;1.33;;;;;;;;;;5021492;28;92969;-78
2023/04/15 14:07:53;;;;;;;4.50;1.45;;;;;;;;;;5019048;28;94537;-78
2023/04/15 14:10:20;;;;;;;3.80;1.40;;;;;;;;;;5018858;28;92519;-78
2023/04/15 14:12:46;;;;;;;3.13;1.38;;;;;;;;;;5018227;28;92256;-78
2023/04/15 14:15:13;;;;;;;2.65;1.35;;;;;;;;;;5016166;28;94971;-78
2023/04/15 14:17:41;;;;;;;2.67;1.40;;;;;;;;;;5018115;28;92316;-78
2023/04/15 14:20:08;;;;;;;2.05;1.20;;;;;;;;;;5017123;28;92392;-78
2023/04/15 14:22:34;;;;;;;3.33;1.30;;;;;;;;;;5017123;28;92683;-78
2023/04/15 14:25:01;;;;;;;2.67;1.42;;;;;;;;;;5010765;28;93812;-78
2023/04/15 14:27:28;;;;;;;2.28;1.20;;;;;;;;;;5021366;28;92603;-78
2023/04/15 14:29:56;;;;;;;2.92;1.30;;;;;;;;;;5035979;28;92529;-77
2023/04/15 14:32:24;;;;;;;2.90;1.30;;;;;;;;;;5012209;28;92722;-78
2023/04/15 14:34:50;;;;;;;3.22;1.30;;;;;;;;;;5014920;28;92408;-78
2023/04/15 14:37:17;;;;;;;3.80;1.42;;;;;;;;;;5015841;28;93974;-78
2023/04/15 14:39:43;;;;;;;4.80;1.50;;;;;;;;;;5021477;28;94803;-77
2023/04/15 14:42:10;;;;;;;3.92;1.30;;;;;;;;;;5041219;27;95181;-78
2023/04/15 14:44:36;;;;;;;4.60;1.30;;;;;;;;;;5025430;28;91931;-77
2023/04/15 14:47:03;;;;;;;3.17;1.30;;;;;;;;;;5027518;28;92467;-77